sensor_id;sensor_type;location;lat;lon;timestamp;pressure;altitude;pressure_sealevel;temperature;humidity
23433;BME280;41331;45.412;10.992;2023-05-22T00:00:08;100639.06;;;21.86;57.49
23433;BME280;41331;45.412;10.992;2023-05-22T00:02:36;100637.47;;;21.96;57.37
23433;BME280;41331;45.412;10.992;2023-05-22T00:05:13;100637.41;;;22.03;56.60
23433;BME280;41331;45.412;10.992;2023-05-22T00:07:41;100635.88;;;21.91;57.13
23433;BME280;41331;45.412;10.992;2023-05-22T00:10:10;100634.66;;;22.07;56.46
23433;BME280;41331;45.412;10.992;2023-05-22T00:12:38;100643.41;;;21.94;56.61
23433;BME280;41331;45.412;10.992;2023-05-22T00:15:06;100643.00;;;22.00;56.03
23433;BME280;41331;45.412;10.992;2023-05-22T00:17:33;100654.84;;;22.07;55.58
23433;BME280;41331;45.412;10.992;2023-05-22T00:20:02;100650.47;;;22.10;55.04
23433;BME280;41331;45.412;10.992;2023-05-22T00:22:33;100647.69;;;22.24;54.46
23433;BME280;41331;45.412;10.992;2023-05-22T00:25:05;100651.19;;;22.32;54.27
23433;BME280;41331;45.412;10.992;2023-05-22T00:27:33;100653.25;;;22.17;54.41
23433;BME280;41331;45.412;10.992;2023-05-22T00:30:00;100646.06;;;22.30;54.29
23433;BME280;41331;45.412;10.992;2023-05-22T00:32:28;100649.63;;;22.27;53.95
23433;BME280;41331;45.412;10.992;2023-05-22T00:34:56;100645.28;;;22.30;54.05
23433;BME280;41331;45.412;10.992;2023-05-22T00:37:23;100641.66;;;22.40;54.19
23433;BME280;41331;45.412;10.992;2023-05-22T00:39:51;100644.03;;;22.38;53.28
23433;BME280;41331;45.412;10.992;2023-05-22T00:42:19;100642.47;;;22.33;53.69
23433;BME280;41331;45.412;10.992;2023-05-22T00:44:47;100653.97;;;22.32;53.46
23433;BME280;41331;45.412;10.992;2023-05-22T00:47:14;100643.25;;;22.34;53.63
23433;BME280;41331;45.412;10.992;2023-05-22T00:49:42;100646.84;;;22.34;53.73
23433;BME280;41331;45.412;10.992;2023-05-22T00:52:11;100644.81;;;22.42;53.13
23433;BME280;41331;45.412;10.992;2023-05-22T00:54:39;100649.16;;;22.43;52.78
23433;BME280;41331;45.412;10.992;2023-05-22T00:57:06;100645.59;;;22.49;52.96
23433;BME280;41331;45.412;10.992;2023-05-22T00:59:34;100651.22;;;22.28;54.10
23433;BME280;41331;45.412;10.992;2023-05-22T01:02:19;100644.09;;;22.31;53.67
23433;BME280;41331;45.412;10.992;2023-05-22T01:04:48;100642.56;;;22.15;53.92
23433;BME280;41331;45.412;10.992;2023-05-22T01:07:16;100650.88;;;22.19;54.25
23433;BME280;41331;45.412;10.992;2023-05-22T01:09:44;100648.50;;;22.17;54.38
23433;BME280;41331;45.412;10.992;2023-05-22T01:15:37;100643.38;;;22.05;54.49
23433;BME280;41331;45.412;10.992;2023-05-22T01:26:23;100636.25;;;22.11;54.33
23433;BME280;41331;45.412;10.992;2023-05-22T01:29:40;100643.00;;;22.00;54.76
23433;BME280;41331;45.412;10.992;2023-05-22T01:32:15;100630.72;;;21.93;54.96
23433;BME280;41331;45.412;10.992;2023-05-22T01:34:52;100638.25;;;21.96;55.15
23433;BME280;41331;45.412;10.992;2023-05-22T01:37:22;100629.56;;;21.91;55.00
23433;BME280;41331;45.412;10.992;2023-05-22T01:39:52;100636.25;;;21.97;54.78
23433;BME280;41331;45.412;10.992;2023-05-22T01:42:20;100632.75;;;21.86;55.38
23433;BME280;41331;45.412;10.992;2023-05-22T01:44:48;100640.66;;;21.91;55.19
23433;BME280;41331;45.412;10.992;2023-05-22T01:47:15;100637.09;;;21.94;54.67
23433;BME280;41331;45.412;10.992;2023-05-22T01:49:44;100639.47;;;21.81;54.94
23433;BME280;41331;45.412;10.992;2023-05-22T01:52:25;100635.13;;;21.73;55.23
23433;BME280;41331;45.412;10.992;2023-05-22T02:00:34;100630.84;;;21.47;56.82
23433;BME280;41331;45.412;10.992;2023-05-22T02:03:14;100629.66;;;21.37;57.02
23433;BME280;41331;45.412;10.992;2023-05-22T02:05:44;100628.50;;;21.31;57.40
23433;BME280;41331;45.412;10.992;2023-05-22T02:08:14;100636.00;;;21.24;57.59
23433;BME280;41331;45.412;10.992;2023-05-22T02:10:43;100634.41;;;21.15;58.44
23433;BME280;41331;45.412;10.992;2023-05-22T02:13:12;100628.84;;;21.12;58.35
23433;BME280;41331;45.412;10.992;2023-05-22T02:15:40;100625.28;;;21.08;58.92
23433;BME280;41331;45.412;10.992;2023-05-22T02:18:09;100624.91;;;21.06;58.68
23433;BME280;41331;45.412;10.992;2023-05-22T02:20:42;100625.69;;;21.06;58.47
23433;BME280;41331;45.412;10.992;2023-05-22T02:23:12;100624.13;;;21.05;58.36
23433;BME280;41331;45.412;10.992;2023-05-22T02:25:40;100622.16;;;21.06;57.56
23433;BME280;41331;45.412;10.992;2023-05-22T02:28:07;100616.59;;;21.06;57.87
23433;BME280;41331;45.412;10.992;2023-05-22T02:30:35;100613.84;;;21.02;58.15
23433;BME280;41331;45.412;10.992;2023-05-22T02:33:03;100613.03;;;20.98;58.53
23433;BME280;41331;45.412;10.992;2023-05-22T02:35:38;100616.19;;;20.97;58.85
23433;BME280;41331;45.412;10.992;2023-05-22T02:38:05;100613.44;;;20.93;58.93
23433;BME280;41331;45.412;10.992;2023-05-22T02:40:33;100607.50;;;20.84;59.67
23433;BME280;41331;45.412;10.992;2023-05-22T02:43:03;100607.50;;;20.77;60.10
23433;BME280;41331;45.412;10.992;2023-05-22T02:45:31;100617.38;;;20.74;60.42
23433;BME280;41331;45.412;10.992;2023-05-22T02:47:59;100618.16;;;20.67;60.97
23433;BME280;41331;45.412;10.992;2023-05-22T02:50:28;100613.81;;;20.66;61.33
23433;BME280;41331;45.412;10.992;2023-05-22T02:52:56;100615.38;;;20.64;61.02
23433;BME280;41331;45.412;10.992;2023-05-22T02:55:23;100611.44;;;20.65;60.96
23433;BME280;41331;45.412;10.992;2023-05-22T02:57:51;100611.03;;;20.66;60.81
23433;BME280;41331;45.412;10.992;2023-05-22T03:00:21;100616.56;;;20.63;60.35
23433;BME280;41331;45.412;10.992;2023-05-22T03:02:49;100609.44;;;20.62;60.38
23433;BME280;41331;45.412;10.992;2023-05-22T03:05:19;100611.44;;;20.65;60.38
23433;BME280;41331;45.412;10.992;2023-05-22T03:07:46;100606.28;;;20.60;61.10
23433;BME280;41331;45.412;10.992;2023-05-22T03:10:15;100611.41;;;20.61;60.60
23433;BME280;41331;45.412;10.992;2023-05-22T03:12:45;100605.13;;;20.64;60.82
23433;BME280;41331;45.412;10.992;2023-05-22T03:15:14;100607.84;;;20.57;60.72
23433;BME280;41331;45.412;10.992;2023-05-22T03:17:43;100608.66;;;20.65;60.38
23433;BME280;41331;45.412;10.992;2023-05-22T03:20:11;100615.00;;;20.58;62.27
23433;BME280;41331;45.412;10.992;2023-05-22T03:22:43;100602.63;;;20.38;62.88
23433;BME280;41331;45.412;10.992;2023-05-22T03:25:12;100612.47;;;20.21;63.18
23433;BME280;41331;45.412;10.992;2023-05-22T03:27:39;100611.66;;;20.10;63.28
23433;BME280;41331;45.412;10.992;2023-05-22T03:30:10;100608.47;;;20.04;63.74
23433;BME280;41331;45.412;10.992;2023-05-22T03:32:40;100617.53;;;20.01;64.11
23433;BME280;41331;45.412;10.992;2023-05-22T03:35:08;100611.97;;;19.98;64.64
23433;BME280;41331;45.412;10.992;2023-05-22T03:37:38;100611.56;;;19.92;64.52
23433;BME280;41331;45.412;10.992;2023-05-22T03:40:06;100609.97;;;19.84;66.35
23433;BME280;41331;45.412;10.992;2023-05-22T03:42:34;100615.47;;;19.84;65.97
23433;BME280;41331;45.412;10.992;2023-05-22T03:45:02;100614.25;;;19.81;66.56
23433;BME280;41331;45.412;10.992;2023-05-22T03:47:30;100614.22;;;19.71;67.81
23433;BME280;41331;45.412;10.992;2023-05-22T03:49:58;100618.44;;;19.54;70.29
23433;BME280;41331;45.412;10.992;2023-05-22T03:52:26;100623.06;;;19.42;71.37
23433;BME280;41331;45.412;10.992;2023-05-22T03:54:54;100621.91;;;19.44;70.75
23433;BME280;41331;45.412;10.992;2023-05-22T03:57:21;100619.97;;;19.51;69.15
23433;BME280;41331;45.412;10.992;2023-05-22T03:59:49;100619.63;;;19.56;68.63
23433;BME280;41331;45.412;10.992;2023-05-22T04:02:16;100623.28;;;19.71;67.59
23433;BME280;41331;45.412;10.992;2023-05-22T04:04:44;100628.06;;;19.81;67.08
23433;BME280;41331;45.412;10.992;2023-05-22T04:07:17;100630.44;;;19.79;68.78
23433;BME280;41331;45.412;10.992;2023-05-22T04:09:46;100641.16;;;19.91;66.82
23433;BME280;41331;45.412;10.992;2023-05-22T04:12:13;100634.84;;;19.91;67.76
23433;BME280;41331;45.412;10.992;2023-05-22T04:14:42;100640.00;;;19.96;67.36
23433;BME280;41331;45.412;10.992;2023-05-22T04:17:09;100632.84;;;19.88;73.68
23433;BME280;41331;45.412;10.992;2023-05-22T04:19:37;100639.47;;;19.69;73.26
23433;BME280;41331;45.412;10.992;2023-05-22T04:22:05;100643.03;;;19.77;70.58
23433;BME280;41331;45.412;10.992;2023-05-22T04:24:32;100640.69;;;19.82;69.22
23433;BME280;41331;45.412;10.992;2023-05-22T04:27:00;100645.84;;;19.87;69.20
23433;BME280;41331;45.412;10.992;2023-05-22T04:29:28;100639.19;;;19.92;68.62
23433;BME280;41331;45.412;10.992;2023-05-22T04:31:55;100641.19;;;19.99;68.63
23433;BME280;41331;45.412;10.992;2023-05-22T04:34:23;100640.84;;;20.04;69.08
23433;BME280;41331;45.412;10.992;2023-05-22T04:36:52;100642.00;;;20.06;68.31
23433;BME280;41331;45.412;10.992;2023-05-22T04:39:19;100645.19;;;20.12;69.06
23433;BME280;41331;45.412;10.992;2023-05-22T04:41:47;100641.28;;;20.20;67.97
23433;BME280;41331;45.412;10.992;2023-05-22T04:44:15;100647.63;;;20.24;68.73
23433;BME280;41331;45.412;10.992;2023-05-22T04:46:43;100647.59;;;20.17;70.19
23433;BME280;41331;45.412;10.992;2023-05-22T04:49:14;100654.69;;;20.14;72.53
23433;BME280;41331;45.412;10.992;2023-05-22T04:51:41;100657.06;;;20.16;72.90
23433;BME280;41331;45.412;10.992;2023-05-22T04:54:09;100653.13;;;20.13;72.84
23433;BME280;41331;45.412;10.992;2023-05-22T04:56:39;100654.31;;;20.20;72.52
23433;BME280;41331;45.412;10.992;2023-05-22T04:59:07;100653.19;;;20.35;69.94
23433;BME280;41331;45.412;10.992;2023-05-22T05:01:37;100648.53;;;20.57;67.75
23433;BME280;41331;45.412;10.992;2023-05-22T05:04:04;100650.56;;;20.71;67.23
23433;BME280;41331;45.412;10.992;2023-05-22T05:06:33;100658.06;;;20.77;68.16
23433;BME280;41331;45.412;10.992;2023-05-22T05:09:04;100653.72;;;20.83;68.50
23433;BME280;41331;45.412;10.992;2023-05-22T05:11:32;100648.22;;;20.90;66.18
23433;BME280;41331;45.412;10.992;2023-05-22T05:13:59;100648.22;;;20.98;68.08
23433;BME280;41331;45.412;10.992;2023-05-22T05:16:28;100645.84;;;21.07;68.04
23433;BME280;41331;45.412;10.992;2023-05-22T05:18:56;100645.88;;;21.14;68.75
23433;BME280;41331;45.412;10.992;2023-05-22T05:21:23;100651.00;;;21.23;66.52
23433;BME280;41331;45.412;10.992;2023-05-22T05:23:56;100650.63;;;21.35;65.58
23433;BME280;41331;45.412;10.992;2023-05-22T05:26:24;100653.78;;;21.40;65.24
23433;BME280;41331;45.412;10.992;2023-05-22T05:28:53;100653.00;;;21.51;65.25
23433;BME280;41331;45.412;10.992;2023-05-22T05:31:24;100650.19;;;21.58;64.80
23433;BME280;41331;45.412;10.992;2023-05-22T05:34:27;100649.81;;;21.59;63.26
23433;BME280;41331;45.412;10.992;2023-05-22T05:37:04;100654.56;;;21.66;63.87
23433;BME280;41331;45.412;10.992;2023-05-22T05:39:32;100650.63;;;21.60;63.88
23433;BME280;41331;45.412;10.992;2023-05-22T05:42:02;100650.59;;;21.70;62.80
23433;BME280;41331;45.412;10.992;2023-05-22T05:44:29;100650.16;;;21.83;62.98
23433;BME280;41331;45.412;10.992;2023-05-22T05:46:57;100655.66;;;22.01;62.61
23433;BME280;41331;45.412;10.992;2023-05-22T05:49:26;100658.81;;;22.03;62.78
23433;BME280;41331;45.412;10.992;2023-05-22T05:51:53;100652.06;;;22.04;61.06
23433;BME280;41331;45.412;10.992;2023-05-22T05:54:22;100650.88;;;22.12;61.77
23433;BME280;41331;45.412;10.992;2023-05-22T05:56:54;100658.41;;;22.11;62.85
23433;BME280;41331;45.412;10.992;2023-05-22T05:59:21;100658.00;;;22.16;61.85
23433;BME280;41331;45.412;10.992;2023-05-22T06:02:11;100658.31;;;22.40;60.64
23433;BME280;41331;45.412;10.992;2023-05-22T06:04:40;100654.28;;;22.52;60.83
23433;BME280;41331;45.412;10.992;2023-05-22T06:07:09;100654.66;;;22.54;60.86
23433;BME280;41331;45.412;10.992;2023-05-22T06:09:42;100656.63;;;22.53;60.06
23433;BME280;41331;45.412;10.992;2023-05-22T06:12:13;100662.16;;;22.57;59.48
23433;BME280;41331;45.412;10.992;2023-05-22T06:14:43;100656.63;;;22.57;62.61
23433;BME280;41331;45.412;10.992;2023-05-22T06:17:12;100662.59;;;22.52;62.50
23433;BME280;41331;45.412;10.992;2023-05-22T06:19:42;100668.50;;;22.61;59.39
23433;BME280;41331;45.412;10.992;2023-05-22T06:22:09;100672.00;;;22.72;59.41
23433;BME280;41331;45.412;10.992;2023-05-22T06:24:39;100664.88;;;22.71;59.29
23433;BME280;41331;45.412;10.992;2023-05-22T06:27:12;100675.47;;;22.87;58.09
23433;BME280;41331;45.412;10.992;2023-05-22T06:29:40;100671.91;;;22.90;57.78
23433;BME280;41331;45.412;10.992;2023-05-22T06:32:08;100677.06;;;22.91;59.06
23433;BME280;41331;45.412;10.992;2023-05-22T06:34:38;100674.22;;;22.98;60.15
23433;BME280;41331;45.412;10.992;2023-05-22T06:37:10;100675.75;;;23.10;59.32
23433;BME280;41331;45.412;10.992;2023-05-22T06:39:41;100668.00;;;23.36;58.23
23433;BME280;41331;45.412;10.992;2023-05-22T06:42:27;100674.13;;;23.65;59.33
23433;BME280;41331;45.412;10.992;2023-05-22T06:45:20;100668.91;;;23.70;57.28
23433;BME280;41331;45.412;10.992;2023-05-22T06:48:11;100664.06;;;24.12;56.86
23433;BME280;41331;45.412;10.992;2023-05-22T06:50:51;100671.22;;;24.44;57.16
23433;BME280;41331;45.412;10.992;2023-05-22T06:53:19;100667.47;;;24.58;57.33
23433;BME280;41331;45.412;10.992;2023-05-22T06:55:46;100671.94;;;24.51;55.60
23433;BME280;41331;45.412;10.992;2023-05-22T06:58:22;100675.50;;;24.52;56.44
23433;BME280;41331;45.412;10.992;2023-05-22T07:00:50;100664.06;;;24.46;53.47
23433;BME280;41331;45.412;10.992;2023-05-22T07:03:22;100669.06;;;24.59;53.47
23433;BME280;41331;45.412;10.992;2023-05-22T07:06:13;100671.38;;;24.64;53.71
23433;BME280;41331;45.412;10.992;2023-05-22T07:08:42;100667.19;;;25.06;53.02
23433;BME280;41331;45.412;10.992;2023-05-22T07:11:09;100669.69;;;25.24;49.60
23433;BME280;41331;45.412;10.992;2023-05-22T07:13:37;100660.31;;;25.38;50.37
23433;BME280;41331;45.412;10.992;2023-05-22T07:16:04;100660.59;;;25.43;49.77
23433;BME280;41331;45.412;10.992;2023-05-22T07:18:34;100668.66;;;25.61;50.52
23433;BME280;41331;45.412;10.992;2023-05-22T07:21:01;100672.97;;;25.66;48.38
23433;BME280;41331;45.412;10.992;2023-05-22T07:23:29;100670.53;;;25.68;50.19
23433;BME280;41331;45.412;10.992;2023-05-22T07:25:57;100677.00;;;25.85;50.71
23433;BME280;41331;45.412;10.992;2023-05-22T07:28:31;100674.50;;;25.90;45.86
23433;BME280;41331;45.412;10.992;2023-05-22T07:31:04;100679.59;;;25.95;43.56
23433;BME280;41331;45.412;10.992;2023-05-22T07:33:31;100673.66;;;26.13;43.18
23433;BME280;41331;45.412;10.992;2023-05-22T07:36:02;100669.03;;;26.46;45.56
23433;BME280;41331;45.412;10.992;2023-05-22T07:38:30;100671.81;;;26.46;42.84
23433;BME280;41331;45.412;10.992;2023-05-22T07:41:00;100667.03;;;26.47;43.39
23433;BME280;41331;45.412;10.992;2023-05-22T07:43:32;100673.06;;;26.62;43.19
23433;BME280;41331;45.412;10.992;2023-05-22T07:46:00;100669.81;;;26.27;44.80
23433;BME280;41331;45.412;10.992;2023-05-22T07:48:34;100668.69;;;26.41;42.73
23433;BME280;41331;45.412;10.992;2023-05-22T07:51:02;100674.50;;;26.50;45.11
23433;BME280;41331;45.412;10.992;2023-05-22T07:53:30;100676.78;;;26.55;45.22
23433;BME280;41331;45.412;10.992;2023-05-22T07:56:00;100671.44;;;26.44;47.01
23433;BME280;41331;45.412;10.992;2023-05-22T07:58:32;100669.38;;;26.48;45.45
23433;BME280;41331;45.412;10.992;2023-05-22T08:01:00;100671.91;;;26.59;44.83
23433;BME280;41331;45.412;10.992;2023-05-22T08:03:28;100671.81;;;26.82;41.96
23433;BME280;41331;45.412;10.992;2023-05-22T08:05:56;100669.34;;;26.84;43.42
23433;BME280;41331;45.412;10.992;2023-05-22T08:08:23;100669.72;;;26.87;46.74
23433;BME280;41331;45.412;10.992;2023-05-22T08:10:51;100658.63;;;26.83;40.22
23433;BME280;41331;45.412;10.992;2023-05-22T08:13:30;100669.63;;;26.90;39.45
23433;BME280;41331;45.412;10.992;2023-05-22T08:16:00;100656.28;;;26.98;42.06
23433;BME280;41331;45.412;10.992;2023-05-22T08:18:28;100646.50;;;26.90;40.57
23433;BME280;41331;45.412;10.992;2023-05-22T08:20:56;100660.25;;;27.17;41.00
23433;BME280;41331;45.412;10.992;2023-05-22T08:23:24;100654.91;;;27.22;40.80
23433;BME280;41331;45.412;10.992;2023-05-22T08:25:51;100657.41;;;26.84;39.23
23433;BME280;41331;45.412;10.992;2023-05-22T08:28:18;100653.25;;;27.08;39.79
23433;BME280;41331;45.412;10.992;2023-05-22T08:30:46;100650.88;;;27.07;40.53
23433;BME280;41331;45.412;10.992;2023-05-22T08:33:13;100654.78;;;26.93;39.78
23433;BME280;41331;45.412;10.992;2023-05-22T08:35:41;100657.81;;;26.66;40.79
23433;BME280;41331;45.412;10.992;2023-05-22T08:38:08;100650.69;;;26.81;42.55
23433;BME280;41331;45.412;10.992;2023-05-22T08:40:37;100655.06;;;26.99;41.32
23433;BME280;41331;45.412;10.992;2023-05-22T08:43:09;100651.47;;;26.98;41.63
23433;BME280;41331;45.412;10.992;2023-05-22T08:45:39;100649.06;;;27.17;43.20
23433;BME280;41331;45.412;10.992;2023-05-22T08:48:11;100649.38;;;27.02;43.39
23433;BME280;41331;45.412;10.992;2023-05-22T08:50:40;100650.94;;;27.36;41.45
23433;BME280;41331;45.412;10.992;2023-05-22T08:53:11;100645.13;;;27.14;41.36
23433;BME280;41331;45.412;10.992;2023-05-22T08:55:39;100646.34;;;27.13;43.33
23433;BME280;41331;45.412;10.992;2023-05-22T08:58:07;100652.19;;;27.35;43.19
23433;BME280;41331;45.412;10.992;2023-05-22T09:00:36;100648.25;;;27.49;40.67
23433;BME280;41331;45.412;10.992;2023-05-22T09:03:04;100641.81;;;27.81;42.08
23433;BME280;41331;45.412;10.992;2023-05-22T09:05:33;100644.81;;;27.74;41.31
23433;BME280;41331;45.412;10.992;2023-05-22T09:08:02;100646.72;;;27.77;41.20
23433;BME280;41331;45.412;10.992;2023-05-22T09:10:48;100644.31;;;27.92;41.83
23433;BME280;41331;45.412;10.992;2023-05-22T09:13:28;100650.88;;;28.14;44.25
23433;BME280;41331;45.412;10.992;2023-05-22T09:16:10;100643.03;;;27.80;41.75
23433;BME280;41331;45.412;10.992;2023-05-22T09:18:38;100646.56;;;27.97;41.23
23433;BME280;41331;45.412;10.992;2023-05-22T09:21:07;100642.19;;;27.96;40.84
23433;BME280;41331;45.412;10.992;2023-05-22T09:23:58;100641.75;;;27.97;41.10
23433;BME280;41331;45.412;10.992;2023-05-22T09:26:29;100638.28;;;28.06;41.86
23433;BME280;41331;45.412;10.992;2023-05-22T09:28:59;100643.06;;;28.22;39.15
23433;BME280;41331;45.412;10.992;2023-05-22T09:31:27;100633.47;;;27.94;38.73
23433;BME280;41331;45.412;10.992;2023-05-22T09:33:56;100639.88;;;28.07;39.91
23433;BME280;41331;45.412;10.992;2023-05-22T09:36:34;100635.06;;;28.07;42.10
23433;BME280;41331;45.412;10.992;2023-05-22T09:39:03;100634.34;;;28.32;40.63
23433;BME280;41331;45.412;10.992;2023-05-22T09:41:35;100638.13;;;28.26;38.01
23433;BME280;41331;45.412;10.992;2023-05-22T09:44:10;100632.88;;;27.86;37.44
23433;BME280;41331;45.412;10.992;2023-05-22T09:46:40;100638.69;;;27.62;38.26
23433;BME280;41331;45.412;10.992;2023-05-22T09:49:08;100637.81;;;27.82;36.97
23433;BME280;41331;45.412;10.992;2023-05-22T09:51:38;100634.31;;;27.78;36.33
23433;BME280;41331;45.412;10.992;2023-05-22T09:54:07;100634.75;;;27.76;37.69
23433;BME280;41331;45.412;10.992;2023-05-22T09:56:35;100636.94;;;27.98;39.50
23433;BME280;41331;45.412;10.992;2023-05-22T09:59:10;100632.53;;;28.26;39.69
23433;BME280;41331;45.412;10.992;2023-05-22T10:01:39;100627.09;;;28.48;41.55
23433;BME280;41331;45.412;10.992;2023-05-22T10:04:12;100631.22;;;28.56;39.04
23433;BME280;41331;45.412;10.992;2023-05-22T10:06:49;100630.28;;;28.21;37.35
23433;BME280;41331;45.412;10.992;2023-05-22T10:09:18;100626.03;;;28.29;36.42
23433;BME280;41331;45.412;10.992;2023-05-22T10:11:49;100631.59;;;28.03;37.75
23433;BME280;41331;45.412;10.992;2023-05-22T10:14:18;100624.59;;;27.82;37.88
23433;BME280;41331;45.412;10.992;2023-05-22T10:16:46;100615.22;;;27.89;38.09
23433;BME280;41331;45.412;10.992;2023-05-22T10:19:14;100617.38;;;28.52;38.02
23433;BME280;41331;45.412;10.992;2023-05-22T10:21:41;100617.13;;;28.59;40.31
23433;BME280;41331;45.412;10.992;2023-05-22T10:24:09;100613.31;;;28.66;40.50
23433;BME280;41331;45.412;10.992;2023-05-22T10:26:38;100608.16;;;28.64;38.21
23433;BME280;41331;45.412;10.992;2023-05-22T10:29:17;100611.97;;;28.71;39.72
23433;BME280;41331;45.412;10.992;2023-05-22T10:32:05;100607.72;;;28.53;39.48
23433;BME280;41331;45.412;10.992;2023-05-22T10:35:10;100612.94;;;28.13;38.75
23433;BME280;41331;45.412;10.992;2023-05-22T10:37:41;100617.13;;;28.59;38.83
23433;BME280;41331;45.412;10.992;2023-05-22T10:40:13;100608.84;;;28.69;39.23
23433;BME280;41331;45.412;10.992;2023-05-22T10:42:42;100614.56;;;28.52;37.41
23433;BME280;41331;45.412;10.992;2023-05-22T10:45:10;100611.94;;;28.32;37.03
23433;BME280;41331;45.412;10.992;2023-05-22T10:47:38;100615.47;;;28.62;38.62
23433;BME280;41331;45.412;10.992;2023-05-22T10:50:10;100603.00;;;28.88;39.53
23433;BME280;41331;45.412;10.992;2023-05-22T10:52:38;100607.16;;;28.97;39.00
23433;BME280;41331;45.412;10.992;2023-05-22T10:55:07;100604.56;;;28.51;41.07
23433;BME280;41331;45.412;10.992;2023-05-22T10:57:37;100598.66;;;28.75;42.68
23433;BME280;41331;45.412;10.992;2023-05-22T11:00:10;100595.84;;;28.49;40.55
23433;BME280;41331;45.412;10.992;2023-05-22T11:02:43;100593.13;;;28.97;40.73
23433;BME280;41331;45.412;10.992;2023-05-22T11:07:44;100602.03;;;29.30;43.52
23433;BME280;41331;45.412;10.992;2023-05-22T11:10:12;100598.75;;;28.71;39.52
23433;BME280;41331;45.412;10.992;2023-05-22T11:12:39;100600.53;;;29.03;40.91
23433;BME280;41331;45.412;10.992;2023-05-22T11:15:09;100596.63;;;29.35;41.15
23433;BME280;41331;45.412;10.992;2023-05-22T11:17:41;100579.88;;;29.45;40.81
23433;BME280;41331;45.412;10.992;2023-05-22T11:22:49;100580.72;;;29.32;41.51
23433;BME280;41331;45.412;10.992;2023-05-22T11:25:18;100578.06;;;29.51;37.65
23433;BME280;41331;45.412;10.992;2023-05-22T11:27:46;100589.56;;;28.96;36.48
23433;BME280;41331;45.412;10.992;2023-05-22T11:30:15;100579.97;;;29.19;37.35
23433;BME280;41331;45.412;10.992;2023-05-22T11:32:44;100582.81;;;29.06;37.14
23433;BME280;41331;45.412;10.992;2023-05-22T11:35:16;100578.13;;;28.90;37.24
23433;BME280;41331;45.412;10.992;2023-05-22T11:37:45;100577.59;;;28.83;37.86
23433;BME280;41331;45.412;10.992;2023-05-22T11:40:21;100578.13;;;28.90;36.39
23433;BME280;41331;45.412;10.992;2023-05-22T11:42:54;100581.63;;;28.95;38.01
23433;BME280;41331;45.412;10.992;2023-05-22T11:45:22;100583.28;;;28.92;36.94
23433;BME280;41331;45.412;10.992;2023-05-22T11:47:50;100576.78;;;29.08;37.38
23433;BME280;41331;45.412;10.992;2023-05-22T11:50:18;100567.91;;;29.09;41.04
23433;BME280;41331;45.412;10.992;2023-05-22T11:53:08;100573.50;;;29.22;36.53
23433;BME280;41331;45.412;10.992;2023-05-22T11:55:36;100571.88;;;28.74;35.53
23433;BME280;41331;45.412;10.992;2023-05-22T11:58:03;100573.91;;;29.21;37.95
23433;BME280;41331;45.412;10.992;2023-05-22T12:00:31;100577.78;;;29.01;36.82
23433;BME280;41331;45.412;10.992;2023-05-22T12:02:59;100572.31;;;28.98;36.01
23433;BME280;41331;45.412;10.992;2023-05-22T12:05:27;100565.59;;;28.82;36.47
23433;BME280;41331;45.412;10.992;2023-05-22T12:07:56;100566.28;;;29.21;37.25
23433;BME280;41331;45.412;10.992;2023-05-22T12:10:24;100561.81;;;29.46;38.66
23433;BME280;41331;45.412;10.992;2023-05-22T12:12:53;100558.34;;;29.41;39.32
23433;BME280;41331;45.412;10.992;2023-05-22T12:15:21;100554.63;;;29.57;36.42
23433;BME280;41331;45.412;10.992;2023-05-22T12:17:48;100562.16;;;29.48;38.86
23433;BME280;41331;45.412;10.992;2023-05-22T12:20:16;100553.47;;;29.33;37.77
23433;BME280;41331;45.412;10.992;2023-05-22T12:22:43;100560.31;;;29.32;36.12
23433;BME280;41331;45.412;10.992;2023-05-22T12:25:13;100562.59;;;29.46;36.59
23433;BME280;41331;45.412;10.992;2023-05-22T12:27:43;100557.38;;;29.35;36.79
23433;BME280;41331;45.412;10.992;2023-05-22T12:30:12;100560.25;;;29.45;37.46
23433;BME280;41331;45.412;10.992;2023-05-22T12:32:46;100565.72;;;29.26;35.36
23433;BME280;41331;45.412;10.992;2023-05-22T12:35:15;100563.19;;;29.41;37.21
23433;BME280;41331;45.412;10.992;2023-05-22T12:37:50;100566.38;;;29.30;36.38
23433;BME280;41331;45.412;10.992;2023-05-22T12:40:17;100560.47;;;29.50;37.66
23433;BME280;41331;45.412;10.992;2023-05-22T12:42:49;100564.81;;;29.64;35.79
23433;BME280;41331;45.412;10.992;2023-05-22T12:45:16;100558.91;;;29.93;37.27
23433;BME280;41331;45.412;10.992;2023-05-22T12:47:44;100564.19;;;29.91;35.12
23433;BME280;41331;45.412;10.992;2023-05-22T12:50:12;100562.56;;;28.89;36.29
23433;BME280;41331;45.412;10.992;2023-05-22T12:52:40;100564.81;;;28.69;35.40
23433;BME280;41331;45.412;10.992;2023-05-22T12:55:09;100563.63;;;28.57;36.31
23433;BME280;41331;45.412;10.992;2023-05-22T12:57:36;100559.47;;;28.49;35.19
23433;BME280;41331;45.412;10.992;2023-05-22T13:00:04;100554.50;;;28.79;33.93
23433;BME280;41331;45.412;10.992;2023-05-22T13:02:32;100554.44;;;28.44;33.94
23433;BME280;41331;45.412;10.992;2023-05-22T13:05:00;100543.06;;;28.86;34.75
23433;BME280;41331;45.412;10.992;2023-05-22T13:07:27;100545.59;;;29.06;34.74
23433;BME280;41331;45.412;10.992;2023-05-22T13:09:55;100548.03;;;29.16;36.60
23433;BME280;41331;45.412;10.992;2023-05-22T13:12:23;100557.31;;;28.79;34.65
23433;BME280;41331;45.412;10.992;2023-05-22T13:14:50;100547.25;;;28.69;34.64
23433;BME280;41331;45.412;10.992;2023-05-22T13:17:18;100549.44;;;28.86;33.78